sensor_id;sensor_type;location;lat;lon;timestamp;temperature;humidity
20528;DHT22;23612;50.894;10.700;2023-02-03T00:01:18;5.90;99.90
20528;DHT22;23612;50.894;10.700;2023-02-03T00:03:43;6.00;99.90
20528;DHT22;23612;50.894;10.700;2023-02-03T00:06:09;6.00;99.90
20528;DHT22;23612;50.894;10.700;2023-02-03T00:08:35;5.90;99.90
20528;DHT22;23612;50.894;10.700;2023-02-03T00:11:02;5.90;99.90
20528;DHT22;23612;50.894;10.700;2023-02-03T00:13:28;5.80;99.90
20528;DHT22;23612;50.894;10.700;2023-02-03T00:15:53;5.70;99.90
20528;DHT22;23612;50.894;10.700;2023-02-03T00:18:19;5.60;99.90
20528;DHT22;23612;50.894;10.700;2023-02-03T00:20:44;5.50;99.90
20528;DHT22;23612;50.894;10.700;2023-02-03T00:23:11;5.50;99.90
20528;DHT22;23612;50.894;10.700;2023-02-03T00:25:37;5.50;99.90
20528;DHT22;23612;50.894;10.700;2023-02-03T00:28:03;5.40;99.90
20528;DHT22;23612;50.894;10.700;2023-02-03T00:30:29;5.40;99.90
20528;DHT22;23612;50.894;10.700;2023-02-03T00:32:55;5.50;99.90
20528;DHT22;23612;50.894;10.700;2023-02-03T00:35:21;5.40;99.90
20528;DHT22;23612;50.894;10.700;2023-02-03T00:37:50;5.60;99.90
20528;DHT22;23612;50.894;10.700;2023-02-03T00:40:18;5.70;99.90
20528;DHT22;23612;50.894;10.700;2023-02-03T00:42:43;5.70;99.90
20528;DHT22;23612;50.894;10.700;2023-02-03T00:45:09;5.80;99.90
20528;DHT22;23612;50.894;10.700;2023-02-03T00:47:34;5.80;99.90
20528;DHT22;23612;50.894;10.700;2023-02-03T00:50:00;5.80;99.90
20528;DHT22;23612;50.894;10.700;2023-02-03T00:52:25;5.80;99.90
20528;DHT22;23612;50.894;10.700;2023-02-03T00:54:50;5.90;99.90
20528;DHT22;23612;50.894;10.700;2023-02-03T00:57:16;5.90;99.90
20528;DHT22;23612;50.894;10.700;2023-02-03T00:59:41;6.00;99.90
20528;DHT22;23612;50.894;10.700;2023-02-03T01:02:07;6.00;99.90
20528;DHT22;23612;50.894;10.700;2023-02-03T01:04:32;6.00;99.90
20528;DHT22;23612;50.894;10.700;2023-02-03T01:06:58;6.00;99.90
20528;DHT22;23612;50.894;10.700;2023-02-03T01:09:24;6.00;99.90
20528;DHT22;23612;50.894;10.700;2023-02-03T01:11:50;6.00;99.90
20528;DHT22;23612;50.894;10.700;2023-02-03T01:14:15;6.10;99.90
20528;DHT22;23612;50.894;10.700;2023-02-03T01:16:41;6.10;99.90
20528;DHT22;23612;50.894;10.700;2023-02-03T01:19:06;6.10;99.90
20528;DHT22;23612;50.894;10.700;2023-02-03T01:21:32;6.00;99.90
20528;DHT22;23612;50.894;10.700;2023-02-03T01:23:58;6.10;99.90
20528;DHT22;23612;50.894;10.700;2023-02-03T01:26:24;6.10;99.90
20528;DHT22;23612;50.894;10.700;2023-02-03T01:28:54;6.10;99.90
20528;DHT22;23612;50.894;10.700;2023-02-03T01:31:23;6.10;99.90
20528;DHT22;23612;50.894;10.700;2023-02-03T01:33:51;6.10;99.90
20528;DHT22;23612;50.894;10.700;2023-02-03T01:36:19;6.10;99.90
20528;DHT22;23612;50.894;10.700;2023-02-03T01:38:45;6.10;99.90
20528;DHT22;23612;50.894;10.700;2023-02-03T01:41:13;6.10;99.90
20528;DHT22;23612;50.894;10.700;2023-02-03T01:43:42;6.10;99.90
20528;DHT22;23612;50.894;10.700;2023-02-03T01:46:26;6.10;99.90
20528;DHT22;23612;50.894;10.700;2023-02-03T01:48:55;6.10;99.90
20528;DHT22;23612;50.894;10.700;2023-02-03T01:51:21;6.10;99.90
20528;DHT22;23612;50.894;10.700;2023-02-03T01:53:48;6.20;99.90
20528;DHT22;23612;50.894;10.700;2023-02-03T01:56:15;6.20;99.90
20528;DHT22;23612;50.894;10.700;2023-02-03T01:58:42;6.20;99.90
20528;DHT22;23612;50.894;10.700;2023-02-03T02:01:08;6.20;99.90
20528;DHT22;23612;50.894;10.700;2023-02-03T02:03:38;6.20;99.90
20528;DHT22;23612;50.894;10.700;2023-02-03T02:06:11;6.30;99.90
20528;DHT22;23612;50.894;10.700;2023-02-03T02:08:37;6.30;99.90
20528;DHT22;23612;50.894;10.700;2023-02-03T02:11:05;6.30;99.90
20528;DHT22;23612;50.894;10.700;2023-02-03T02:13:33;6.30;99.90
20528;DHT22;23612;50.894;10.700;2023-02-03T02:16:29;6.30;99.90
20528;DHT22;23612;50.894;10.700;2023-02-03T02:19:08;6.30;99.90
20528;DHT22;23612;50.894;10.700;2023-02-03T02:27:55;6.30;99.90
20528;DHT22;23612;50.894;10.700;2023-02-03T02:33:18;6.30;99.90
20528;DHT22;23612;50.894;10.700;2023-02-03T02:35:58;6.30;99.90
20528;DHT22;23612;50.894;10.700;2023-02-03T02:38:49;6.40;99.90
20528;DHT22;23612;50.894;10.700;2023-02-03T02:41:19;6.40;99.90
20528;DHT22;23612;50.894;10.700;2023-02-03T02:44:02;6.40;99.90
20528;DHT22;23612;50.894;10.700;2023-02-03T02:46:39;6.40;99.90
20528;DHT22;23612;50.894;10.700;2023-02-03T02:49:29;6.40;99.90
20528;DHT22;23612;50.894;10.700;2023-02-03T02:52:00;6.40;99.90
20528;DHT22;23612;50.894;10.700;2023-02-03T02:54:27;6.40;99.90
20528;DHT22;23612;50.894;10.700;2023-02-03T02:56:58;6.40;99.90
20528;DHT22;23612;50.894;10.700;2023-02-03T02:59:24;6.40;99.90
20528;DHT22;23612;50.894;10.700;2023-02-03T03:01:50;6.40;99.90
20528;DHT22;23612;50.894;10.700;2023-02-03T03:04:20;6.40;99.90
20528;DHT22;23612;50.894;10.700;2023-02-03T03:06:52;6.30;99.90
20528;DHT22;23612;50.894;10.700;2023-02-03T03:09:30;6.30;99.90
20528;DHT22;23612;50.894;10.700;2023-02-03T03:12:08;6.30;99.90
20528;DHT22;23612;50.894;10.700;2023-02-03T03:14:36;6.30;99.90
20528;DHT22;23612;50.894;10.700;2023-02-03T03:17:05;6.30;99.90
20528;DHT22;23612;50.894;10.700;2023-02-03T03:19:44;6.30;99.90
20528;DHT22;23612;50.894;10.700;2023-02-03T03:22:15;6.20;99.90
20528;DHT22;23612;50.894;10.700;2023-02-03T03:24:47;6.20;99.90
20528;DHT22;23612;50.894;10.700;2023-02-03T03:27:19;6.20;99.90
20528;DHT22;23612;50.894;10.700;2023-02-03T03:29:52;6.20;99.90
20528;DHT22;23612;50.894;10.700;2023-02-03T03:32:19;6.20;99.90
20528;DHT22;23612;50.894;10.700;2023-02-03T03:34:45;6.20;99.90
20528;DHT22;23612;50.894;10.700;2023-02-03T03:37:16;6.30;99.90
20528;DHT22;23612;50.894;10.700;2023-02-03T03:39:55;6.30;99.90
20528;DHT22;23612;50.894;10.700;2023-02-03T03:42:36;6.30;99.90
20528;DHT22;23612;50.894;10.700;2023-02-03T03:45:16;6.30;99.90
20528;DHT22;23612;50.894;10.700;2023-02-03T03:47:48;6.40;99.90
20528;DHT22;23612;50.894;10.700;2023-02-03T03:50:25;6.40;99.90
20528;DHT22;23612;50.894;10.700;2023-02-03T03:52:53;6.40;99.90
20528;DHT22;23612;50.894;10.700;2023-02-03T03:55:20;6.40;99.90
20528;DHT22;23612;50.894;10.700;2023-02-03T03:58:04;6.30;99.90
20528;DHT22;23612;50.894;10.700;2023-02-03T04:00:34;6.30;99.90
20528;DHT22;23612;50.894;10.700;2023-02-03T04:03:05;6.30;99.90
20528;DHT22;23612;50.894;10.700;2023-02-03T04:05:33;6.30;99.90
20528;DHT22;23612;50.894;10.700;2023-02-03T04:07:59;6.30;99.90
20528;DHT22;23612;50.894;10.700;2023-02-03T04:12:56;6.30;99.90
20528;DHT22;23612;50.894;10.700;2023-02-03T04:15:21;6.30;99.90
20528;DHT22;23612;50.894;10.700;2023-02-03T04:17:47;6.30;99.90
20528;DHT22;23612;50.894;10.700;2023-02-03T04:20:13;6.30;99.90
20528;DHT22;23612;50.894;10.700;2023-02-03T04:22:39;6.30;99.90
20528;DHT22;23612;50.894;10.700;2023-02-03T04:25:05;6.30;99.90
20528;DHT22;23612;50.894;10.700;2023-02-03T04:27:30;6.30;99.90
20528;DHT22;23612;50.894;10.700;2023-02-03T04:29:56;6.30;99.90
20528;DHT22;23612;50.894;10.700;2023-02-03T04:32:21;6.20;99.90
20528;DHT22;23612;50.894;10.700;2023-02-03T04:34:47;6.30;99.90
20528;DHT22;23612;50.894;10.700;2023-02-03T04:37:12;6.20;99.90
20528;DHT22;23612;50.894;10.700;2023-02-03T04:39:38;6.20;99.90
20528;DHT22;23612;50.894;10.700;2023-02-03T04:42:03;6.20;99.90
20528;DHT22;23612;50.894;10.700;2023-02-03T04:44:29;6.20;99.90
20528;DHT22;23612;50.894;10.700;2023-02-03T04:46:54;6.30;99.90
20528;DHT22;23612;50.894;10.700;2023-02-03T04:49:20;6.30;99.90
20528;DHT22;23612;50.894;10.700;2023-02-03T04:51:47;6.20;99.90
20528;DHT22;23612;50.894;10.700;2023-02-03T04:54:13;6.30;99.90
20528;DHT22;23612;50.894;10.700;2023-02-03T04:56:39;6.20;99.90
20528;DHT22;23612;50.894;10.700;2023-02-03T04:59:04;6.20;99.90
20528;DHT22;23612;50.894;10.700;2023-02-03T05:01:30;6.30;99.90
20528;DHT22;23612;50.894;10.700;2023-02-03T05:03:55;6.30;99.90
20528;DHT22;23612;50.894;10.700;2023-02-03T05:06:26;6.30;99.90
20528;DHT22;23612;50.894;10.700;2023-02-03T05:08:53;6.30;99.90
20528;DHT22;23612;50.894;10.700;2023-02-03T05:11:19;6.30;99.90
20528;DHT22;23612;50.894;10.700;2023-02-03T05:13:45;6.30;99.90
20528;DHT22;23612;50.894;10.700;2023-02-03T05:16:11;6.30;99.90
20528;DHT22;23612;50.894;10.700;2023-02-03T05:18:36;6.30;99.90
20528;DHT22;23612;50.894;10.700;2023-02-03T05:21:02;6.30;99.90
20528;DHT22;23612;50.894;10.700;2023-02-03T05:23:27;6.40;99.90
20528;DHT22;23612;50.894;10.700;2023-02-03T05:25:53;6.40;99.90
20528;DHT22;23612;50.894;10.700;2023-02-03T05:28:18;6.40;99.90
20528;DHT22;23612;50.894;10.700;2023-02-03T05:30:44;6.40;99.90
20528;DHT22;23612;50.894;10.700;2023-02-03T05:33:09;6.40;99.90
20528;DHT22;23612;50.894;10.700;2023-02-03T05:35:35;6.40;99.90
20528;DHT22;23612;50.894;10.700;2023-02-03T05:38:01;6.40;99.90
20528;DHT22;23612;50.894;10.700;2023-02-03T05:40:27;6.50;99.90
20528;DHT22;23612;50.894;10.700;2023-02-03T05:43:11;6.50;99.90
20528;DHT22;23612;50.894;10.700;2023-02-03T05:45:37;6.50;99.90
20528;DHT22;23612;50.894;10.700;2023-02-03T05:48:03;6.50;99.90
20528;DHT22;23612;50.894;10.700;2023-02-03T05:50:29;6.60;99.90
20528;DHT22;23612;50.894;10.700;2023-02-03T05:52:58;6.60;99.90
20528;DHT22;23612;50.894;10.700;2023-02-03T05:55:25;6.60;99.90
20528;DHT22;23612;50.894;10.700;2023-02-03T05:57:50;6.60;99.90
20528;DHT22;23612;50.894;10.700;2023-02-03T06:00:16;6.60;99.90
20528;DHT22;23612;50.894;10.700;2023-02-03T06:02:42;6.60;99.90
20528;DHT22;23612;50.894;10.700;2023-02-03T06:05:07;6.60;99.90
20528;DHT22;23612;50.894;10.700;2023-02-03T06:07:33;6.60;99.90
20528;DHT22;23612;50.894;10.700;2023-02-03T06:09:58;6.60;99.90
20528;DHT22;23612;50.894;10.700;2023-02-03T06:12:24;6.60;99.90
20528;DHT22;23612;50.894;10.700;2023-02-03T06:14:49;6.60;99.90
20528;DHT22;23612;50.894;10.700;2023-02-03T06:17:15;6.60;99.90
20528;DHT22;23612;50.894;10.700;2023-02-03T06:19:40;6.70;99.90
20528;DHT22;23612;50.894;10.700;2023-02-03T06:22:06;6.70;99.90
20528;DHT22;23612;50.894;10.700;2023-02-03T06:24:31;6.70;99.90
20528;DHT22;23612;50.894;10.700;2023-02-03T06:26:57;6.60;99.90
20528;DHT22;23612;50.894;10.700;2023-02-03T06:29:22;6.60;99.90
20528;DHT22;23612;50.894;10.700;2023-02-03T06:31:48;6.60;99.90
20528;DHT22;23612;50.894;10.700;2023-02-03T06:34:13;6.60;99.90
20528;DHT22;23612;50.894;10.700;2023-02-03T06:36:39;6.60;99.90
20528;DHT22;23612;50.894;10.700;2023-02-03T06:39:04;6.60;99.90
20528;DHT22;23612;50.894;10.700;2023-02-03T06:41:29;6.60;99.90
20528;DHT22;23612;50.894;10.700;2023-02-03T06:43:57;6.60;99.90
20528;DHT22;23612;50.894;10.700;2023-02-03T06:46:22;6.60;99.90
20528;DHT22;23612;50.894;10.700;2023-02-03T06:48:52;6.60;99.90
20528;DHT22;23612;50.894;10.700;2023-02-03T06:51:17;6.60;99.90
20528;DHT22;23612;50.894;10.700;2023-02-03T06:53:43;6.60;99.90
20528;DHT22;23612;50.894;10.700;2023-02-03T06:56:08;6.70;99.90
20528;DHT22;23612;50.894;10.700;2023-02-03T06:58:34;6.70;99.90
20528;DHT22;23612;50.894;10.700;2023-02-03T07:00:59;6.70;99.90
20528;DHT22;23612;50.894;10.700;2023-02-03T07:03:25;6.70;99.90
20528;DHT22;23612;50.894;10.700;2023-02-03T07:05:50;6.70;99.90
20528;DHT22;23612;50.894;10.700;2023-02-03T07:08:16;6.70;99.90
20528;DHT22;23612;50.894;10.700;2023-02-03T07:10:41;6.70;99.90
20528;DHT22;23612;50.894;10.700;2023-02-03T07:13:07;6.70;99.90
20528;DHT22;23612;50.894;10.700;2023-02-03T07:15:32;6.70;99.90
20528;DHT22;23612;50.894;10.700;2023-02-03T07:17:58;6.80;99.90
20528;DHT22;23612;50.894;10.700;2023-02-03T07:20:23;6.80;99.90
20528;DHT22;23612;50.894;10.700;2023-02-03T07:22:53;6.80;99.90
20528;DHT22;23612;50.894;10.700;2023-02-03T07:25:19;6.80;99.90
20528;DHT22;23612;50.894;10.700;2023-02-03T07:27:44;6.80;99.90
20528;DHT22;23612;50.894;10.700;2023-02-03T07:30:10;6.80;99.90
20528;DHT22;23612;50.894;10.700;2023-02-03T07:32:36;6.80;99.90
20528;DHT22;23612;50.894;10.700;2023-02-03T07:35:02;6.80;99.90
20528;DHT22;23612;50.894;10.700;2023-02-03T07:37:27;6.80;99.90
20528;DHT22;23612;50.894;10.700;2023-02-03T07:39:53;6.80;99.90
20528;DHT22;23612;50.894;10.700;2023-02-03T07:42:18;6.80;99.90
20528;DHT22;23612;50.894;10.700;2023-02-03T07:44:44;6.80;99.90
20528;DHT22;23612;50.894;10.700;2023-02-03T07:47:09;6.80;99.90
20528;DHT22;23612;50.894;10.700;2023-02-03T07:49:34;6.80;99.90
20528;DHT22;23612;50.894;10.700;2023-02-03T07:52:00;6.80;99.90
20528;DHT22;23612;50.894;10.700;2023-02-03T07:54:25;6.80;99.90
20528;DHT22;23612;50.894;10.700;2023-02-03T07:56:51;6.80;99.90
20528;DHT22;23612;50.894;10.700;2023-02-03T07:59:16;6.80;99.90
20528;DHT22;23612;50.894;10.700;2023-02-03T08:01:42;6.70;99.90
20528;DHT22;23612;50.894;10.700;2023-02-03T08:04:08;6.80;99.90
20528;DHT22;23612;50.894;10.700;2023-02-03T08:06:33;6.80;99.90
20528;DHT22;23612;50.894;10.700;2023-02-03T08:08:59;6.70;99.90
20528;DHT22;23612;50.894;10.700;2023-02-03T08:11:24;6.80;99.90
20528;DHT22;23612;50.894;10.700;2023-02-03T08:13:50;6.80;99.90
20528;DHT22;23612;50.894;10.700;2023-02-03T08:16:16;6.90;99.90
20528;DHT22;23612;50.894;10.700;2023-02-03T08:18:41;6.90;99.90
20528;DHT22;23612;50.894;10.700;2023-02-03T08:21:07;6.90;99.90
20528;DHT22;23612;50.894;10.700;2023-02-03T08:23:32;6.90;99.90
20528;DHT22;23612;50.894;10.700;2023-02-03T08:25:58;6.90;99.90
20528;DHT22;23612;50.894;10.700;2023-02-03T08:28:23;7.00;99.90
20528;DHT22;23612;50.894;10.700;2023-02-03T08:30:49;7.00;99.90
20528;DHT22;23612;50.894;10.700;2023-02-03T08:33:15;7.00;99.90
20528;DHT22;23612;50.894;10.700;2023-02-03T08:35:44;7.00;99.90
20528;DHT22;23612;50.894;10.700;2023-02-03T08:38:10;7.00;99.90
20528;DHT22;23612;50.894;10.700;2023-02-03T08:40:35;7.00;99.90
20528;DHT22;23612;50.894;10.700;2023-02-03T08:43:01;7.10;99.90
20528;DHT22;23612;50.894;10.700;2023-02-03T08:45:26;7.10;99.90
20528;DHT22;23612;50.894;10.700;2023-02-03T08:47:52;7.10;99.90
20528;DHT22;23612;50.894;10.700;2023-02-03T08:50:17;7.20;99.90
20528;DHT22;23612;50.894;10.700;2023-02-03T08:52:44;7.20;99.90
20528;DHT22;23612;50.894;10.700;2023-02-03T08:55:09;7.20;99.90
20528;DHT22;23612;50.894;10.700;2023-02-03T08:57:36;7.20;99.90
20528;DHT22;23612;50.894;10.700;2023-02-03T09:00:03;7.20;99.90
20528;DHT22;23612;50.894;10.700;2023-02-03T09:02:29;7.20;99.90
20528;DHT22;23612;50.894;10.700;2023-02-03T09:04:55;7.20;99.90
20528;DHT22;23612;50.894;10.700;2023-02-03T09:07:20;7.20;99.90
20528;DHT22;23612;50.894;10.700;2023-02-03T09:09:46;7.20;99.90
20528;DHT22;23612;50.894;10.700;2023-02-03T09:12:11;7.20;99.90
20528;DHT22;23612;50.894;10.700;2023-02-03T09:14:37;7.20;99.90
20528;DHT22;23612;50.894;10.700;2023-02-03T09:17:04;7.20;99.90
20528;DHT22;23612;50.894;10.700;2023-02-03T09:19:30;7.20;99.90
20528;DHT22;23612;50.894;10.700;2023-02-03T09:21:56;7.20;99.90
20528;DHT22;23612;50.894;10.700;2023-02-03T09:24:22;7.20;99.90
20528;DHT22;23612;50.894;10.700;2023-02-03T09:26:48;7.20;99.90
20528;DHT22;23612;50.894;10.700;2023-02-03T09:29:13;7.20;99.90
20528;DHT22;23612;50.894;10.700;2023-02-03T09:31:39;7.20;99.90
20528;DHT22;23612;50.894;10.700;2023-02-03T09:34:04;7.20;99.90
20528;DHT22;23612;50.894;10.700;2023-02-03T09:36:30;7.30;99.90
20528;DHT22;23612;50.894;10.700;2023-02-03T09:38:56;7.30;99.90
20528;DHT22;23612;50.894;10.700;2023-02-03T09:44:03;7.40;99.90
20528;DHT22;23612;50.894;10.700;2023-02-03T09:46:39;7.50;99.90
20528;DHT22;23612;50.894;10.700;2023-02-03T09:49:16;7.50;99.90
20528;DHT22;23612;50.894;10.700;2023-02-03T09:51:53;7.50;99.90
20528;DHT22;23612;50.894;10.700;2023-02-03T09:57:05;7.50;99.90
20528;DHT22;23612;50.894;10.700;2023-02-03T09:59:37;7.50;99.90
20528;DHT22;23612;50.894;10.700;2023-02-03T10:02:19;7.50;99.90
20528;DHT22;23612;50.894;10.700;2023-02-03T10:04:56;7.40;99.90
20528;DHT22;23612;50.894;10.700;2023-02-03T10:07:32;7.40;99.90
20528;DHT22;23612;50.894;10.700;2023-02-03T10:17:57;7.40;99.90
20528;DHT22;23612;50.894;10.700;2023-02-03T10:20:43;7.40;99.90
20528;DHT22;23612;50.894;10.700;2023-02-03T10:23:17;7.40;99.90
20528;DHT22;23612;50.894;10.700;2023-02-03T10:25:50;7.50;99.90
20528;DHT22;23612;50.894;10.700;2023-02-03T10:28:23;7.50;99.90
20528;DHT22;23612;50.894;10.700;2023-02-03T10:30:53;7.60;99.90
20528;DHT22;23612;50.894;10.700;2023-02-03T10:33:21;7.60;99.90
20528;DHT22;23612;50.894;10.700;2023-02-03T10:35:54;7.60;99.90
20528;DHT22;23612;50.894;10.700;2023-02-03T10:38:43;7.60;99.90
20528;DHT22;23612;50.894;10.700;2023-02-03T10:41:11;7.70;99.90
20528;DHT22;23612;50.894;10.700;2023-02-03T10:43:37;7.60;99.90
20528;DHT22;23612;50.894;10.700;2023-02-03T10:46:13;7.60;99.90
20528;DHT22;23612;50.894;10.700;2023-02-03T10:48:39;7.60;99.90
20528;DHT22;23612;50.894;10.700;2023-02-03T10:51:15;7.50;99.90
20528;DHT22;23612;50.894;10.700;2023-02-03T10:53:42;7.50;99.90
20528;DHT22;23612;50.894;10.700;2023-02-03T10:56:13;7.40;99.90
20528;DHT22;23612;50.894;10.700;2023-02-03T10:58:46;7.40;99.90
20528;DHT22;23612;50.894;10.700;2023-02-03T11:01:14;7.30;99.90
20528;DHT22;23612;50.894;10.700;2023-02-03T11:03:42;7.30;99.90
20528;DHT22;23612;50.894;10.700;2023-02-03T11:06:17;7.30;99.90
20528;DHT22;23612;50.894;10.700;2023-02-03T11:08:48;7.20;99.90
20528;DHT22;23612;50.894;10.700;2023-02-03T11:11:25;7.20;99.90
20528;DHT22;23612;50.894;10.700;2023-02-03T11:14:09;7.20;99.90
20528;DHT22;23612;50.894;10.700;2023-02-03T11:16:35;7.30;99.90
20528;DHT22;23612;50.894;10.700;2023-02-03T11:19:02;7.40;99.90
20528;DHT22;23612;50.894;10.700;2023-02-03T11:24:08;7.50;99.90
20528;DHT22;23612;50.894;10.700;2023-02-03T11:26:46;7.60;99.90
20528;DHT22;23612;50.894;10.700;2023-02-03T11:29:18;7.60;99.90
20528;DHT22;23612;50.894;10.700;2023-02-03T11:31:48;7.60;99.90
20528;DHT22;23612;50.894;10.700;2023-02-03T11:34:19;7.60;99.90
20528;DHT22;23612;50.894;10.700;2023-02-03T11:36:48;7.60;99.90
20528;DHT22;23612;50.894;10.700;2023-02-03T11:39:22;7.50;99.90
20528;DHT22;23612;50.894;10.700;2023-02-03T11:41:48;7.50;99.90
20528;DHT22;23612;50.894;10.700;2023-02-03T11:44:23;7.40;99.90
20528;DHT22;23612;50.894;10.700;2023-02-03T11:46:53;7.40;99.90
20528;DHT22;23612;50.894;10.700;2023-02-03T11:51:56;7.30;99.90
20528;DHT22;23612;50.894;10.700;2023-02-03T11:54:38;7.30;99.90
20528;DHT22;23612;50.894;10.700;2023-02-03T12:00:02;7.40;99.90
20528;DHT22;23612;50.894;10.700;2023-02-03T12:13:58;7.40;99.90
20528;DHT22;23612;50.894;10.700;2023-02-03T12:16:51;7.50;99.90
20528;DHT22;23612;50.894;10.700;2023-02-03T12:24:58;7.60;99.90
20528;DHT22;23612;50.894;10.700;2023-02-03T12:27:45;7.70;99.90
20528;DHT22;23612;50.894;10.700;2023-02-03T12:30:48;7.60;99.90
20528;DHT22;23612;50.894;10.700;2023-02-03T12:33:23;7.60;99.90
20528;DHT22;23612;50.894;10.700;2023-02-03T12:36:08;7.60;99.90
20528;DHT22;23612;50.894;10.700;2023-02-03T12:38:55;7.50;99.90
20528;DHT22;23612;50.894;10.700;2023-02-03T12:41:29;7.60;99.90
20528;DHT22;23612;50.894;10.700;2023-02-03T12:44:04;7.60;99.90
20528;DHT22;23612;50.894;10.700;2023-02-03T12:46:39;7.50;99.90
20528;DHT22;23612;50.894;10.700;2023-02-03T12:52:00;7.40;99.90
20528;DHT22;23612;50.894;10.700;2023-02-03T12:57:19;7.40;99.90
20528;DHT22;23612;50.894;10.700;2023-02-03T12:59:59;7.30;99.90
20528;DHT22;23612;50.894;10.700;2023-02-03T13:02:30;7.20;99.90
20528;DHT22;23612;50.894;10.700;2023-02-03T13:05:04;7.20;99.90
20528;DHT22;23612;50.894;10.700;2023-02-03T13:07:37;7.20;99.90
20528;DHT22;23612;50.894;10.700;2023-02-03T13:10:44;7.10;99.90
20528;DHT22;23612;50.894;10.700;2023-02-03T13:13:14;7.10;99.90
20528;DHT22;23612;50.894;10.700;2023-02-03T13:15:47;7.10;99.90
20528;DHT22;23612;50.894;10.700;2023-02-03T13:20:41;7.00;99.90
20528;DHT22;23612;50.894;10.700;2023-02-03T13:23:11;7.10;99.90
20528;DHT22;23612;50.894;10.700;2023-02-03T13:40:17;7.20;99.90
20528;DHT22;23612;50.894;10.700;2023-02-03T13:42:50;7.20;99.90
20528;DHT22;23612;50.894;10.700;2023-02-03T13:45:37;7.10;99.90
20528;DHT22;23612;50.894;10.700;2023-02-03T13:48:28;7.20;99.90
20528;DHT22;23612;50.894;10.700;2023-02-03T13:51:17;7.30;99.90
20528;DHT22;23612;50.894;10.700;2023-02-03T13:53:45;7.30;99.90
20528;DHT22;23612;50.894;10.700;2023-02-03T13:56:22;7.30;99.90
20528;DHT22;23612;50.894;10.700;2023-02-03T13:59:05;7.40;99.90
20528;DHT22;23612;50.894;10.700;2023-02-03T14:01:34;7.40;99.90
20528;DHT22;23612;50.894;10.700;2023-02-03T14:04:02;7.50;99.90
20528;DHT22;23612;50.894;10.700;2023-02-03T14:09:00;7.50;99.90
20528;DHT22;23612;50.894;10.700;2023-02-03T14:11:37;7.40;99.90
20528;DHT22;23612;50.894;10.700;2023-02-03T14:16:47;7.40;99.90
20528;DHT22;23612;50.894;10.700;2023-02-03T14:22:14;7.40;99.90
20528;DHT22;23612;50.894;10.700;2023-02-03T14:24:43;7.30;99.90
20528;DHT22;23612;50.894;10.700;2023-02-03T14:27:20;7.30;99.90
20528;DHT22;23612;50.894;10.700;2023-02-03T14:30:09;7.30;99.90
20528;DHT22;23612;50.894;10.700;2023-02-03T14:32:48;7.20;99.90
20528;DHT22;23612;50.894;10.700;2023-02-03T14:35:22;7.10;99.90
20528;DHT22;23612;50.894;10.700;2023-02-03T14:38:09;7.20;99.90
20528;DHT22;23612;50.894;10.700;2023-02-03T14:40:51;7.20;99.90
20528;DHT22;23612;50.894;10.700;2023-02-03T14:49:45;7.20;99.90
20528;DHT22;23612;50.894;10.700;2023-02-03T14:55:15;7.30;99.90
20528;DHT22;23612;50.894;10.700;2023-02-03T14:57:50;7.20;99.90
20528;DHT22;23612;50.894;10.700;2023-02-03T15:03:14;7.30;99.90
20528;DHT22;23612;50.894;10.700;2023-02-03T15:05:47;7.20;99.90
20528;DHT22;23612;50.894;10.700;2023-02-03T15:08:44;7.20;99.90
20528;DHT22;23612;50.894;10.700;2023-02-03T15:11:41;7.20;99.90
20528;DHT22;23612;50.894;10.700;2023-02-03T15:14:17;7.20;99.90
20528;DHT22;23612;50.894;10.700;2023-02-03T15:16:43;7.10;99.90
20528;DHT22;23612;50.894;10.700;2023-02-03T15:19:17;7.10;99.90
20528;DHT22;23612;50.894;10.700;2023-02-03T15:21:43;7.10;99.90
20528;DHT22;23612;50.894;10.700;2023-02-03T15:24:14;7.10;99.90
20528;DHT22;23612;50.894;10.700;2023-02-03T15:26:48;7.00;99.90
20528;DHT22;23612;50.894;10.700;2023-02-03T15:29:26;7.00;99.90
20528;DHT22;23612;50.894;10.700;2023-02-03T15:31:58;7.00;99.90
20528;DHT22;23612;50.894;10.700;2023-02-03T15:34:32;6.90;99.90
20528;DHT22;23612;50.894;10.700;2023-02-03T15:37:04;6.90;99.90
20528;DHT22;23612;50.894;10.700;2023-02-03T15:42:05;6.90;99.90
20528;DHT22;23612;50.894;10.700;2023-02-03T15:44:42;6.90;99.90
20528;DHT22;23612;50.894;10.700;2023-02-03T15:47:25;6.90;99.90
20528;DHT22;23612;50.894;10.700;2023-02-03T15:50:02;6.90;99.90
20528;DHT22;23612;50.894;10.700;2023-02-03T15:52:29;6.80;99.90
20528;DHT22;23612;50.894;10.700;2023-02-03T15:55:06;6.80;99.90
20528;DHT22;23612;50.894;10.700;2023-02-03T15:57:35;6.80;99.90
20528;DHT22;23612;50.894;10.700;2023-02-03T16:02:49;6.70;99.90
20528;DHT22;23612;50.894;10.700;2023-02-03T16:05:25;6.80;99.90
20528;DHT22;23612;50.894;10.700;2023-02-03T16:07:51;6.70;99.90
20528;DHT22;23612;50.894;10.700;2023-02-03T16:10:32;6.70;99.90
20528;DHT22;23612;50.894;10.700;2023-02-03T16:13:24;6.70;99.90
20528;DHT22;23612;50.894;10.700;2023-02-03T16:16:14;6.70;99.90
20528;DHT22;23612;50.894;10.700;2023-02-03T16:18:56;6.60;99.90
20528;DHT22;23612;50.894;10.700;2023-02-03T16:21:34;6.60;99.90
20528;DHT22;23612;50.894;10.700;2023-02-03T16:24:01;6.60;99.90
20528;DHT22;23612;50.894;10.700;2023-02-03T16:26:30;6.60;99.90
20528;DHT22;23612;50.894;10.700;2023-02-03T16:29:09;6.60;99.90
20528;DHT22;23612;50.894;10.700;2023-02-03T16:31:54;6.60;99.90
20528;DHT22;23612;50.894;10.700;2023-02-03T16:34:38;6.60;99.90
20528;DHT22;23612;50.894;10.700;2023-02-03T16:37:29;6.60;99.90
20528;DHT22;23612;50.894;10.700;2023-02-03T16:40:20;6.60;99.90
20528;DHT22;23612;50.894;10.700;2023-02-03T16:43:12;6.60;99.90
20528;DHT22;23612;50.894;10.700;2023-02-03T16:45:57;6.60;99.90
20528;DHT22;23612;50.894;10.700;2023-02-03T16:48:41;6.60;99.90
20528;DHT22;23612;50.894;10.700;2023-02-03T16:51:31;6.60;99.90
20528;DHT22;23612;50.894;10.700;2023-02-03T16:53:58;6.60;99.90
20528;DHT22;23612;50.894;10.700;2023-02-03T16:56:23;6.60;99.90
20528;DHT22;23612;50.894;10.700;2023-02-03T16:58:48;6.60;99.90
20528;DHT22;23612;50.894;10.700;2023-02-03T17:01:14;6.60;99.90
20528;DHT22;23612;50.894;10.700;2023-02-03T17:03:39;6.60;99.90
20528;DHT22;23612;50.894;10.700;2023-02-03T17:06:09;6.50;99.90
20528;DHT22;23612;50.894;10.700;2023-02-03T17:08:38;6.40;99.90
20528;DHT22;23612;50.894;10.700;2023-02-03T17:11:24;6.30;99.90
20528;DHT22;23612;50.894;10.700;2023-02-03T17:13:51;6.20;99.90
20528;DHT22;23612;50.894;10.700;2023-02-03T17:16:18;6.20;99.90
20528;DHT22;23612;50.894;10.700;2023-02-03T17:18:45;6.30;99.90
20528;DHT22;23612;50.894;10.700;2023-02-03T17:21:14;6.30;99.90
20528;DHT22;23612;50.894;10.700;2023-02-03T17:23:40;6.40;99.90
20528;DHT22;23612;50.894;10.700;2023-02-03T17:26:06;6.30;99.90
20528;DHT22;23612;50.894;10.700;2023-02-03T17:28:32;6.40;99.90